﻿<?xml version="1.0" encoding="UTF-8" standalone="no" ?>
<gpx xmlns="http://www.topografix.com/GPX/1/1" creator="CompeGPS" version="1.1" xmlns:xsi="http://www.w3.org/2001/XMLSchema-instance" xsi:schemaLocation="http://www.topografix.com/GPX/1/1 http://www.topografix.com/GPX/1/1/gpx.xsd http://www.garmin.com/xmlschemas/GpxExtensions/v3 http://www.garmin.com/xmlschemas/GpxExtensionsv3.xsd http://www.garmin.com/xmlschemas/TrackPointExtension/v1 http://www.garmin.com/xmlschemas/TrackPointExtensionv1.xsd" xmlns:gpxtpx="http://www.garmin.com/xmlschemas/TrackPointExtension/v1">
  <metadata>
    <link href="http://www.compegps.com">
      <text>CompeGPS TEAM, SL</text>
    </link>
    <time>2012-11-17T19:42:02Z</time>
    <bounds maxlat="42.873646" maxlon="1.564275" minlat="42.867330" minlon="1.554656"/>
  </metadata>
<wpt lat="42.873646" lon="1.562619">
<ele>653.000000</ele>
<name>Parking Depart</name>
</wpt>
<wpt lat="42.868365" lon="1.562648">
<ele>700.000000</ele>
<name>Secteur Grottes</name>
</wpt>
<wpt lat="42.868659" lon="1.559630">
<ele>790.000000</ele>
<name>Bifurcation</name>
</wpt>
<wpt lat="42.868915" lon="1.559999">
<ele>805.000000</ele>
<name>Depart voie</name>
</wpt>
<wpt lat="42.869624" lon="1.559855">
<ele>980.000000</ele>
<name>Sortie de la voie</name>
</wpt>
<wpt lat="42.869736" lon="1.558140">
<ele>1002.000000</ele>
<name>Tour du chateau</name>
</wpt>
<wpt lat="42.869920" lon="1.556226">
<ele>960.000000</ele>
<name>Descendre a gauche</name>
</wpt>
<wpt lat="42.869049" lon="1.554689">
<ele>850.000000</ele>
<name>Pied des parois</name>
</wpt>
<wpt lat="42.867678" lon="1.554913">
<ele>810.000000</ele>
<name>Col d_Ijou</name>
</wpt>
<trk>
    <name>Calames - Pilier des Cathares</name>
    <trkseg>
      <trkpt lat="42.873646" lon="1.562619">
        <ele>652.9</ele>
        <time>2012-11-16T09:30:33Z</time>
        <name>Parking Depart</name>
      </trkpt>
      <trkpt lat="42.873614" lon="1.562564">
        <ele>652.9</ele>
        <time>2012-11-16T09:32:21Z</time>
      </trkpt>
      <trkpt lat="42.873544" lon="1.562601">
        <ele>653.8</ele>
        <time>2012-11-16T09:32:33Z</time>
      </trkpt>
      <trkpt lat="42.873468" lon="1.562671">
        <ele>654.3</ele>
        <time>2012-11-16T09:32:43Z</time>
      </trkpt>
      <trkpt lat="42.873405" lon="1.562773">
        <ele>656.2</ele>
        <time>2012-11-16T09:32:53Z</time>
      </trkpt>
      <trkpt lat="42.873309" lon="1.562813">
        <ele>657.2</ele>
        <time>2012-11-16T09:33:01Z</time>
      </trkpt>
      <trkpt lat="42.873238" lon="1.562881">
        <ele>659.1</ele>
        <time>2012-11-16T09:33:10Z</time>
      </trkpt>
      <trkpt lat="42.873165" lon="1.562947">
        <ele>661.0</ele>
        <time>2012-11-16T09:33:19Z</time>
      </trkpt>
      <trkpt lat="42.873073" lon="1.563007">
        <ele>662.5</ele>
        <time>2012-11-16T09:33:28Z</time>
      </trkpt>
      <trkpt lat="42.872982" lon="1.562998">
        <ele>663.9</ele>
        <time>2012-11-16T09:33:37Z</time>
      </trkpt>
      <trkpt lat="42.872893" lon="1.563030">
        <ele>664.4</ele>
        <time>2012-11-16T09:33:44Z</time>
      </trkpt>
      <trkpt lat="42.872761" lon="1.563180">
        <ele>664.4</ele>
        <time>2012-11-16T09:33:52Z</time>
      </trkpt>
      <trkpt lat="42.872709" lon="1.563349">
        <ele>664.4</ele>
        <time>2012-11-16T09:34:00Z</time>
      </trkpt>
      <trkpt lat="42.872694" lon="1.563509">
        <ele>663.0</ele>
        <time>2012-11-16T09:34:09Z</time>
      </trkpt>
      <trkpt lat="42.872618" lon="1.563626">
        <ele>662.5</ele>
        <time>2012-11-16T09:34:18Z</time>
      </trkpt>
      <trkpt lat="42.872543" lon="1.563739">
        <ele>662.0</ele>
        <time>2012-11-16T09:34:26Z</time>
      </trkpt>
      <trkpt lat="42.872463" lon="1.563847">
        <ele>661.0</ele>
        <time>2012-11-16T09:34:35Z</time>
      </trkpt>
      <trkpt lat="42.872370" lon="1.563928">
        <ele>661.0</ele>
        <time>2012-11-16T09:34:43Z</time>
      </trkpt>
      <trkpt lat="42.872249" lon="1.563959">
        <ele>660.6</ele>
        <time>2012-11-16T09:34:51Z</time>
      </trkpt>
      <trkpt lat="42.872094" lon="1.564041">
        <ele>661.0</ele>
        <time>2012-11-16T09:35:02Z</time>
      </trkpt>
      <trkpt lat="42.871990" lon="1.564092">
        <ele>661.5</ele>
        <time>2012-11-16T09:35:10Z</time>
      </trkpt>
      <trkpt lat="42.871888" lon="1.564032">
        <ele>663.5</ele>
        <time>2012-11-16T09:35:20Z</time>
      </trkpt>
      <trkpt lat="42.871800" lon="1.563950">
        <ele>666.3</ele>
        <time>2012-11-16T09:35:30Z</time>
      </trkpt>
      <trkpt lat="42.871688" lon="1.563911">
        <ele>667.3</ele>
        <time>2012-11-16T09:35:40Z</time>
      </trkpt>
      <trkpt lat="42.871603" lon="1.563810">
        <ele>668.7</ele>
        <time>2012-11-16T09:35:51Z</time>
      </trkpt>
      <trkpt lat="42.871517" lon="1.563719">
        <ele>672.6</ele>
        <time>2012-11-16T09:36:05Z</time>
      </trkpt>
      <trkpt lat="42.871405" lon="1.563749">
        <ele>674.0</ele>
        <time>2012-11-16T09:36:18Z</time>
      </trkpt>
      <trkpt lat="42.871293" lon="1.563851">
        <ele>675.9</ele>
        <time>2012-11-16T09:36:31Z</time>
      </trkpt>
      <trkpt lat="42.871214" lon="1.563952">
        <ele>677.9</ele>
        <time>2012-11-16T09:36:44Z</time>
      </trkpt>
      <trkpt lat="42.871116" lon="1.564035">
        <ele>679.8</ele>
        <time>2012-11-16T09:36:57Z</time>
      </trkpt>
      <trkpt lat="42.870947" lon="1.564080">
        <ele>682.2</ele>
        <time>2012-11-16T09:37:12Z</time>
      </trkpt>
      <trkpt lat="42.870825" lon="1.564097">
        <ele>685.6</ele>
        <time>2012-11-16T09:37:29Z</time>
      </trkpt>
      <trkpt lat="42.870691" lon="1.564062">
        <ele>689.4</ele>
        <time>2012-11-16T09:37:46Z</time>
      </trkpt>
      <trkpt lat="42.870553" lon="1.564060">
        <ele>691.8</ele>
        <time>2012-11-16T09:38:06Z</time>
      </trkpt>
      <trkpt lat="42.870395" lon="1.564094">
        <ele>695.7</ele>
        <time>2012-11-16T09:38:24Z</time>
      </trkpt>
      <trkpt lat="42.870262" lon="1.564146">
        <ele>697.6</ele>
        <time>2012-11-16T09:38:40Z</time>
      </trkpt>
      <trkpt lat="42.870141" lon="1.564183">
        <ele>700.9</ele>
        <time>2012-11-16T09:38:57Z</time>
      </trkpt>
      <trkpt lat="42.870010" lon="1.564235">
        <ele>701.4</ele>
        <time>2012-11-16T09:39:10Z</time>
      </trkpt>
      <trkpt lat="42.869890" lon="1.564196">
        <ele>702.4</ele>
        <time>2012-11-16T09:39:21Z</time>
      </trkpt>
      <trkpt lat="42.869788" lon="1.564113">
        <ele>703.8</ele>
        <time>2012-11-16T09:39:31Z</time>
      </trkpt>
      <trkpt lat="42.869695" lon="1.564028">
        <ele>704.8</ele>
        <time>2012-11-16T09:39:41Z</time>
      </trkpt>
      <trkpt lat="42.869625" lon="1.563930">
        <ele>705.8</ele>
        <time>2012-11-16T09:39:51Z</time>
      </trkpt>
      <trkpt lat="42.869531" lon="1.563835">
        <ele>707.7</ele>
        <time>2012-11-16T09:40:04Z</time>
      </trkpt>
      <trkpt lat="42.869442" lon="1.563759">
        <ele>708.6</ele>
        <time>2012-11-16T09:40:16Z</time>
      </trkpt>
      <trkpt lat="42.869345" lon="1.563694">
        <ele>710.1</ele>
        <time>2012-11-16T09:40:28Z</time>
      </trkpt>
      <trkpt lat="42.869236" lon="1.563682">
        <ele>710.5</ele>
        <time>2012-11-16T09:40:38Z</time>
      </trkpt>
      <trkpt lat="42.869115" lon="1.563725">
        <ele>709.1</ele>
        <time>2012-11-16T09:40:49Z</time>
      </trkpt>
      <trkpt lat="42.868986" lon="1.563739">
        <ele>707.7</ele>
        <time>2012-11-16T09:40:58Z</time>
      </trkpt>
      <trkpt lat="42.868893" lon="1.563690">
        <ele>706.7</ele>
        <time>2012-11-16T09:41:08Z</time>
      </trkpt>
      <trkpt lat="42.868784" lon="1.563599">
        <ele>705.3</ele>
        <time>2012-11-16T09:41:18Z</time>
      </trkpt>
      <trkpt lat="42.868712" lon="1.563498">
        <ele>703.3</ele>
        <time>2012-11-16T09:41:27Z</time>
      </trkpt>
      <trkpt lat="42.868655" lon="1.563377">
        <ele>701.9</ele>
        <time>2012-11-16T09:41:37Z</time>
      </trkpt>
      <trkpt lat="42.868611" lon="1.563259">
        <ele>700.9</ele>
        <time>2012-11-16T09:41:47Z</time>
      </trkpt>
      <trkpt lat="42.868515" lon="1.563146">
        <ele>699.0</ele>
        <time>2012-11-16T09:41:59Z</time>
      </trkpt>
      <trkpt lat="42.868474" lon="1.563035">
        <ele>697.6</ele>
        <time>2012-11-16T09:42:08Z</time>
      </trkpt>
      <trkpt lat="42.868454" lon="1.562912">
        <ele>697.6</ele>
        <time>2012-11-16T09:42:21Z</time>
      </trkpt>
      <trkpt lat="42.868419" lon="1.562729">
        <ele>698.0</ele>
        <time>2012-11-16T09:42:43Z</time>
      </trkpt>
      <trkpt lat="42.868365" lon="1.562648">
        <ele>700.5</ele>
        <time>2012-11-16T09:42:58Z</time>
        <name>Secteur Grottes</name>
      </trkpt>
      <trkpt lat="42.868351" lon="1.562440">
        <ele>703.3</ele>
        <time>2012-11-16T09:43:16Z</time>
      </trkpt>
      <trkpt lat="42.868327" lon="1.562268">
        <ele>705.3</ele>
        <time>2012-11-16T09:43:28Z</time>
      </trkpt>
      <trkpt lat="42.868289" lon="1.562134">
        <ele>707.2</ele>
        <time>2012-11-16T09:43:41Z</time>
      </trkpt>
      <trkpt lat="42.868265" lon="1.561942">
        <ele>710.5</ele>
        <time>2012-11-16T09:43:57Z</time>
      </trkpt>
      <trkpt lat="42.868251" lon="1.561794">
        <ele>713.9</ele>
        <time>2012-11-16T09:44:21Z</time>
      </trkpt>
      <trkpt lat="42.868278" lon="1.561672">
        <ele>718.2</ele>
        <time>2012-11-16T09:44:38Z</time>
      </trkpt>
      <trkpt lat="42.868324" lon="1.561485">
        <ele>722.1</ele>
        <time>2012-11-16T09:44:59Z</time>
      </trkpt>
      <trkpt lat="42.868316" lon="1.561379">
        <ele>727.4</ele>
        <time>2012-11-16T09:45:22Z</time>
      </trkpt>
      <trkpt lat="42.868275" lon="1.561240">
        <ele>731.2</ele>
        <time>2012-11-16T09:45:40Z</time>
      </trkpt>
      <trkpt lat="42.868268" lon="1.561118">
        <ele>734.6</ele>
        <time>2012-11-16T09:45:57Z</time>
      </trkpt>
      <trkpt lat="42.868305" lon="1.561027">
        <ele>738.4</ele>
        <time>2012-11-16T09:46:17Z</time>
      </trkpt>
      <trkpt lat="42.868344" lon="1.560963">
        <ele>743.2</ele>
        <time>2012-11-16T09:46:36Z</time>
      </trkpt>
      <trkpt lat="42.868303" lon="1.560865">
        <ele>744.7</ele>
        <time>2012-11-16T09:46:49Z</time>
      </trkpt>
      <trkpt lat="42.868340" lon="1.560769">
        <ele>748.5</ele>
        <time>2012-11-16T09:47:10Z</time>
      </trkpt>
      <trkpt lat="42.868318" lon="1.560707">
        <ele>751.9</ele>
        <time>2012-11-16T09:47:28Z</time>
      </trkpt>
      <trkpt lat="42.868321" lon="1.560608">
        <ele>756.2</ele>
        <time>2012-11-16T09:47:49Z</time>
      </trkpt>
      <trkpt lat="42.868331" lon="1.560531">
        <ele>760.1</ele>
        <time>2012-11-16T09:48:12Z</time>
      </trkpt>
      <trkpt lat="42.868317" lon="1.560417">
        <ele>764.9</ele>
        <time>2012-11-16T09:48:32Z</time>
      </trkpt>
      <trkpt lat="42.868365" lon="1.560355">
        <ele>768.7</ele>
        <time>2012-11-16T09:48:51Z</time>
      </trkpt>
      <trkpt lat="42.868374" lon="1.560260">
        <ele>773.5</ele>
        <time>2012-11-16T09:49:10Z</time>
      </trkpt>
      <trkpt lat="42.868383" lon="1.560160">
        <ele>776.4</ele>
        <time>2012-11-16T09:49:44Z</time>
      </trkpt>
      <trkpt lat="42.868380" lon="1.560033">
        <ele>776.9</ele>
        <time>2012-11-16T09:49:58Z</time>
      </trkpt>
      <trkpt lat="42.868374" lon="1.559905">
        <ele>779.3</ele>
        <time>2012-11-16T09:50:13Z</time>
      </trkpt>
      <trkpt lat="42.868363" lon="1.559780">
        <ele>782.2</ele>
        <time>2012-11-16T09:50:33Z</time>
      </trkpt>
      <trkpt lat="42.868395" lon="1.559700">
        <ele>786.5</ele>
        <time>2012-11-16T09:50:50Z</time>
      </trkpt>
      <trkpt lat="42.868409" lon="1.559594">
        <ele>790.3</ele>
        <time>2012-11-16T09:51:09Z</time>
      </trkpt>
      <trkpt lat="42.868407" lon="1.559472">
        <ele>794.2</ele>
        <time>2012-11-16T09:51:27Z</time>
      </trkpt>
      <trkpt lat="42.868437" lon="1.559389">
        <ele>797.5</ele>
        <time>2012-11-16T09:51:43Z</time>
      </trkpt>
      <trkpt lat="42.868507" lon="1.559487">
        <ele>800.0</ele>
        <time>2012-11-16T09:52:05Z</time>
      </trkpt>
      <trkpt lat="42.868581" lon="1.559548">
        <ele>804.3</ele>
        <time>2012-11-16T09:52:22Z</time>
      </trkpt>
      <trkpt lat="42.868659" lon="1.559630">
        <ele>807.2</ele>
        <time>2012-11-16T09:52:39Z</time>
        <name>Bifurcation</name>
      </trkpt>
      <trkpt lat="42.868683" lon="1.559738">
        <ele>809.1</ele>
        <time>2012-11-16T09:52:53Z</time>
      </trkpt>
      <trkpt lat="42.868715" lon="1.559858">
        <ele>811.5</ele>
        <time>2012-11-16T09:53:09Z</time>
      </trkpt>
      <trkpt lat="42.868775" lon="1.559918">
        <ele>815.3</ele>
        <time>2012-11-16T09:53:33Z</time>
      </trkpt>
      <trkpt lat="42.868843" lon="1.560008">
        <ele>819.7</ele>
        <time>2012-11-16T09:53:54Z</time>
      </trkpt>
      <trkpt lat="42.868863" lon="1.559936">
        <ele>822.5</ele>
        <time>2012-11-16T09:54:12Z</time>
      </trkpt>
      <trkpt lat="42.868911" lon="1.559911">
        <ele>826.9</ele>
        <time>2012-11-16T09:54:33Z</time>
      </trkpt>
      <trkpt lat="42.868915" lon="1.559999">
        <ele>827.3</ele>
        <time>2012-11-16T09:56:36Z</time>
        <name>Depart voie</name>
      </trkpt>
      <trkpt lat="42.869624" lon="1.559855">
        <ele>981.2</ele>
        <time>2012-11-16T12:48:33Z</time>
        <name>Sortie de la voie</name>
      </trkpt>
      <trkpt lat="42.869655" lon="1.559788">
        <ele>984.5</ele>
        <time>2012-11-16T12:48:53Z</time>
      </trkpt>
      <trkpt lat="42.869712" lon="1.559678">
        <ele>987.9</ele>
        <time>2012-11-16T12:49:14Z</time>
      </trkpt>
      <trkpt lat="42.869786" lon="1.559640">
        <ele>990.8</ele>
        <time>2012-11-16T12:49:32Z</time>
      </trkpt>
      <trkpt lat="42.869827" lon="1.559542">
        <ele>992.7</ele>
        <time>2012-11-16T12:49:59Z</time>
      </trkpt>
      <trkpt lat="42.869870" lon="1.559462">
        <ele>995.1</ele>
        <time>2012-11-16T12:50:23Z</time>
      </trkpt>
      <trkpt lat="42.869860" lon="1.559365">
        <ele>998.5</ele>
        <time>2012-11-16T12:50:42Z</time>
      </trkpt>
      <trkpt lat="42.869868" lon="1.559255">
        <ele>999.9</ele>
        <time>2012-11-16T12:50:56Z</time>
      </trkpt>
      <trkpt lat="42.869878" lon="1.559128">
        <ele>1002.3</ele>
        <time>2012-11-16T12:51:12Z</time>
      </trkpt>
      <trkpt lat="42.869903" lon="1.559010">
        <ele>1003.8</ele>
        <time>2012-11-16T12:51:26Z</time>
      </trkpt>
      <trkpt lat="42.869941" lon="1.558895">
        <ele>1003.3</ele>
        <time>2012-11-16T12:51:40Z</time>
      </trkpt>
      <trkpt lat="42.869958" lon="1.558776">
        <ele>1004.7</ele>
        <time>2012-11-16T12:51:51Z</time>
      </trkpt>
      <trkpt lat="42.869958" lon="1.558656">
        <ele>1003.3</ele>
        <time>2012-11-16T12:52:02Z</time>
      </trkpt>
      <trkpt lat="42.869893" lon="1.558574">
        <ele>1004.7</ele>
        <time>2012-11-16T12:52:13Z</time>
      </trkpt>
      <trkpt lat="42.869868" lon="1.558462">
        <ele>1004.7</ele>
        <time>2012-11-16T12:52:22Z</time>
      </trkpt>
      <trkpt lat="42.869826" lon="1.558356">
        <ele>1005.2</ele>
        <time>2012-11-16T12:52:34Z</time>
      </trkpt>
      <trkpt lat="42.869777" lon="1.558248">
        <ele>1006.2</ele>
        <time>2012-11-16T12:52:44Z</time>
      </trkpt>
      <trkpt lat="42.869736" lon="1.558140">
        <ele>1006.2</ele>
        <time>2012-11-16T12:52:56Z</time>
        <name>Tour du chateau</name>
      </trkpt>
      <trkpt lat="42.869707" lon="1.558046">
        <ele>1004.2</ele>
        <time>2012-11-16T13:32:05Z</time>
      </trkpt>
      <trkpt lat="42.869670" lon="1.557936">
        <ele>1002.8</ele>
        <time>2012-11-16T13:32:21Z</time>
      </trkpt>
      <trkpt lat="42.869638" lon="1.557820">
        <ele>1001.8</ele>
        <time>2012-11-16T13:32:33Z</time>
      </trkpt>
      <trkpt lat="42.869631" lon="1.557709">
        <ele>1002.3</ele>
        <time>2012-11-16T13:32:47Z</time>
      </trkpt>
      <trkpt lat="42.869645" lon="1.557598">
        <ele>1000.9</ele>
        <time>2012-11-16T13:33:03Z</time>
      </trkpt>
      <trkpt lat="42.869693" lon="1.557513">
        <ele>997.5</ele>
        <time>2012-11-16T13:33:23Z</time>
      </trkpt>
      <trkpt lat="42.869730" lon="1.557396">
        <ele>995.1</ele>
        <time>2012-11-16T13:33:38Z</time>
      </trkpt>
      <trkpt lat="42.869725" lon="1.557269">
        <ele>992.7</ele>
        <time>2012-11-16T13:33:52Z</time>
      </trkpt>
      <trkpt lat="42.869732" lon="1.557143">
        <ele>991.3</ele>
        <time>2012-11-16T13:34:03Z</time>
      </trkpt>
      <trkpt lat="42.869751" lon="1.557020">
        <ele>988.8</ele>
        <time>2012-11-16T13:34:16Z</time>
      </trkpt>
      <trkpt lat="42.869722" lon="1.556906">
        <ele>987.4</ele>
        <time>2012-11-16T13:34:30Z</time>
      </trkpt>
      <trkpt lat="42.869743" lon="1.556793">
        <ele>985.5</ele>
        <time>2012-11-16T13:34:48Z</time>
      </trkpt>
      <trkpt lat="42.869755" lon="1.556681">
        <ele>982.6</ele>
        <time>2012-11-16T13:35:11Z</time>
      </trkpt>
      <trkpt lat="42.869800" lon="1.556616">
        <ele>979.2</ele>
        <time>2012-11-16T13:35:32Z</time>
      </trkpt>
      <trkpt lat="42.869859" lon="1.556562">
        <ele>975.9</ele>
        <time>2012-11-16T13:35:59Z</time>
      </trkpt>
      <trkpt lat="42.869896" lon="1.556479">
        <ele>972.5</ele>
        <time>2012-11-16T13:36:21Z</time>
      </trkpt>
      <trkpt lat="42.869897" lon="1.556348">
        <ele>970.6</ele>
        <time>2012-11-16T13:36:35Z</time>
      </trkpt>
      <trkpt lat="42.869920" lon="1.556226">
        <ele>966.7</ele>
        <time>2012-11-16T13:37:00Z</time>
        <name>Descendre a gauche</name>
      </trkpt>
      <trkpt lat="42.869841" lon="1.556179">
        <ele>962.9</ele>
        <time>2012-11-16T13:37:18Z</time>
      </trkpt>
      <trkpt lat="42.869782" lon="1.556114">
        <ele>958.6</ele>
        <time>2012-11-16T13:37:39Z</time>
      </trkpt>
      <trkpt lat="42.869780" lon="1.556016">
        <ele>954.7</ele>
        <time>2012-11-16T13:38:02Z</time>
      </trkpt>
      <trkpt lat="42.869793" lon="1.555889">
        <ele>949.4</ele>
        <time>2012-11-16T13:38:25Z</time>
      </trkpt>
      <trkpt lat="42.869775" lon="1.555818">
        <ele>944.2</ele>
        <time>2012-11-16T13:39:02Z</time>
      </trkpt>
      <trkpt lat="42.869721" lon="1.555758">
        <ele>939.3</ele>
        <time>2012-11-16T13:39:25Z</time>
      </trkpt>
      <trkpt lat="42.869713" lon="1.555670">
        <ele>934.5</ele>
        <time>2012-11-16T13:39:54Z</time>
      </trkpt>
      <trkpt lat="42.869689" lon="1.555597">
        <ele>929.7</ele>
        <time>2012-11-16T13:40:14Z</time>
      </trkpt>
      <trkpt lat="42.869648" lon="1.555505">
        <ele>924.9</ele>
        <time>2012-11-16T13:40:45Z</time>
      </trkpt>
      <trkpt lat="42.869610" lon="1.555436">
        <ele>920.1</ele>
        <time>2012-11-16T13:41:06Z</time>
      </trkpt>
      <trkpt lat="42.869615" lon="1.555355">
        <ele>915.8</ele>
        <time>2012-11-16T13:41:31Z</time>
      </trkpt>
      <trkpt lat="42.869651" lon="1.555246">
        <ele>911.5</ele>
        <time>2012-11-16T13:42:13Z</time>
      </trkpt>
      <trkpt lat="42.869598" lon="1.555202">
        <ele>906.7</ele>
        <time>2012-11-16T13:42:47Z</time>
      </trkpt>
      <trkpt lat="42.869574" lon="1.555119">
        <ele>900.9</ele>
        <time>2012-11-16T13:43:15Z</time>
      </trkpt>
      <trkpt lat="42.869552" lon="1.555032">
        <ele>895.6</ele>
        <time>2012-11-16T13:43:37Z</time>
      </trkpt>
      <trkpt lat="42.869513" lon="1.554978">
        <ele>891.3</ele>
        <time>2012-11-16T13:43:59Z</time>
      </trkpt>
      <trkpt lat="42.869454" lon="1.554901">
        <ele>885.0</ele>
        <time>2012-11-16T13:44:24Z</time>
      </trkpt>
      <trkpt lat="42.869442" lon="1.554799">
        <ele>879.3</ele>
        <time>2012-11-16T13:44:51Z</time>
      </trkpt>
      <trkpt lat="42.869370" lon="1.554755">
        <ele>874.9</ele>
        <time>2012-11-16T13:45:17Z</time>
      </trkpt>
      <trkpt lat="42.869320" lon="1.554682">
        <ele>869.2</ele>
        <time>2012-11-16T13:45:36Z</time>
      </trkpt>
      <trkpt lat="42.869223" lon="1.554656">
        <ele>864.8</ele>
        <time>2012-11-16T13:45:50Z</time>
      </trkpt>
      <trkpt lat="42.869128" lon="1.554675">
        <ele>861.0</ele>
        <time>2012-11-16T13:46:02Z</time>
      </trkpt>
      <trkpt lat="42.869049" lon="1.554689">
        <ele>857.6</ele>
        <time>2012-11-16T13:46:14Z</time>
        <name>Pied des parois</name>
      </trkpt>
      <trkpt lat="42.868949" lon="1.554720">
        <ele>854.3</ele>
        <time>2012-11-16T13:46:26Z</time>
      </trkpt>
      <trkpt lat="42.868832" lon="1.554732">
        <ele>849.5</ele>
        <time>2012-11-16T13:46:40Z</time>
      </trkpt>
      <trkpt lat="42.868713" lon="1.554782">
        <ele>846.6</ele>
        <time>2012-11-16T13:46:52Z</time>
      </trkpt>
      <trkpt lat="42.868614" lon="1.554891">
        <ele>846.6</ele>
        <time>2012-11-16T13:47:02Z</time>
      </trkpt>
      <trkpt lat="42.868530" lon="1.555012">
        <ele>847.5</ele>
        <time>2012-11-16T13:47:15Z</time>
      </trkpt>
      <trkpt lat="42.868427" lon="1.555131">
        <ele>847.5</ele>
        <time>2012-11-16T13:47:31Z</time>
      </trkpt>
      <trkpt lat="42.868308" lon="1.555114">
        <ele>842.7</ele>
        <time>2012-11-16T13:47:44Z</time>
      </trkpt>
      <trkpt lat="42.868210" lon="1.555057">
        <ele>838.4</ele>
        <time>2012-11-16T13:47:57Z</time>
      </trkpt>
      <trkpt lat="42.868111" lon="1.555009">
        <ele>834.1</ele>
        <time>2012-11-16T13:48:08Z</time>
      </trkpt>
      <trkpt lat="42.867992" lon="1.554977">
        <ele>829.3</ele>
        <time>2012-11-16T13:48:22Z</time>
      </trkpt>
      <trkpt lat="42.867888" lon="1.554976">
        <ele>825.9</ele>
        <time>2012-11-16T13:48:31Z</time>
      </trkpt>
      <trkpt lat="42.867780" lon="1.554894">
        <ele>825.0</ele>
        <time>2012-11-16T13:48:39Z</time>
      </trkpt>
      <trkpt lat="42.867678" lon="1.554913">
        <ele>823.0</ele>
        <time>2012-11-16T13:48:47Z</time>
        <name>Col d_Ijou</name>
      </trkpt>
      <trkpt lat="42.867614" lon="1.555076">
        <ele>821.6</ele>
        <time>2012-11-16T13:48:58Z</time>
      </trkpt>
      <trkpt lat="42.867583" lon="1.555248">
        <ele>817.7</ele>
        <time>2012-11-16T13:49:10Z</time>
      </trkpt>
      <trkpt lat="42.867577" lon="1.555427">
        <ele>814.8</ele>
        <time>2012-11-16T13:49:18Z</time>
      </trkpt>
      <trkpt lat="42.867526" lon="1.555567">
        <ele>811.5</ele>
        <time>2012-11-16T13:49:27Z</time>
      </trkpt>
      <trkpt lat="42.867472" lon="1.555690">
        <ele>810.0</ele>
        <time>2012-11-16T13:49:35Z</time>
      </trkpt>
      <trkpt lat="42.867435" lon="1.555850">
        <ele>806.7</ele>
        <time>2012-11-16T13:49:46Z</time>
      </trkpt>
      <trkpt lat="42.867441" lon="1.555986">
        <ele>803.3</ele>
        <time>2012-11-16T13:50:01Z</time>
      </trkpt>
      <trkpt lat="42.867433" lon="1.556171">
        <ele>801.4</ele>
        <time>2012-11-16T13:50:15Z</time>
      </trkpt>
      <trkpt lat="42.867390" lon="1.556365">
        <ele>799.0</ele>
        <time>2012-11-16T13:50:27Z</time>
      </trkpt>
      <trkpt lat="42.867363" lon="1.556581">
        <ele>795.6</ele>
        <time>2012-11-16T13:50:39Z</time>
      </trkpt>
      <trkpt lat="42.867330" lon="1.556755">
        <ele>795.2</ele>
        <time>2012-11-16T13:50:50Z</time>
      </trkpt>
      <trkpt lat="42.867332" lon="1.556938">
        <ele>793.2</ele>
        <time>2012-11-16T13:50:59Z</time>
      </trkpt>
      <trkpt lat="42.867352" lon="1.557085">
        <ele>791.8</ele>
        <time>2012-11-16T13:51:09Z</time>
      </trkpt>
      <trkpt lat="42.867347" lon="1.557235">
        <ele>789.9</ele>
        <time>2012-11-16T13:51:19Z</time>
      </trkpt>
      <trkpt lat="42.867402" lon="1.557375">
        <ele>790.3</ele>
        <time>2012-11-16T13:51:29Z</time>
      </trkpt>
      <trkpt lat="42.867436" lon="1.557546">
        <ele>787.0</ele>
        <time>2012-11-16T13:51:47Z</time>
      </trkpt>
      <trkpt lat="42.867493" lon="1.557760">
        <ele>783.1</ele>
        <time>2012-11-16T13:51:58Z</time>
      </trkpt>
      <trkpt lat="42.867526" lon="1.557897">
        <ele>781.2</ele>
        <time>2012-11-16T13:52:10Z</time>
      </trkpt>
      <trkpt lat="42.867532" lon="1.558030">
        <ele>778.8</ele>
        <time>2012-11-16T13:52:23Z</time>
      </trkpt>
      <trkpt lat="42.867565" lon="1.558219">
        <ele>776.4</ele>
        <time>2012-11-16T13:52:43Z</time>
      </trkpt>
      <trkpt lat="42.867595" lon="1.558363">
        <ele>774.5</ele>
        <time>2012-11-16T13:52:55Z</time>
      </trkpt>
      <trkpt lat="42.867591" lon="1.558572">
        <ele>770.6</ele>
        <time>2012-11-16T13:53:13Z</time>
      </trkpt>
      <trkpt lat="42.867599" lon="1.558703">
        <ele>768.2</ele>
        <time>2012-11-16T13:53:26Z</time>
      </trkpt>
      <trkpt lat="42.867604" lon="1.558837">
        <ele>764.9</ele>
        <time>2012-11-16T13:53:37Z</time>
      </trkpt>
      <trkpt lat="42.867575" lon="1.559002">
        <ele>762.0</ele>
        <time>2012-11-16T13:53:48Z</time>
      </trkpt>
      <trkpt lat="42.867604" lon="1.559148">
        <ele>759.6</ele>
        <time>2012-11-16T13:53:59Z</time>
      </trkpt>
      <trkpt lat="42.867632" lon="1.559288">
        <ele>757.7</ele>
        <time>2012-11-16T13:54:10Z</time>
      </trkpt>
      <trkpt lat="42.867648" lon="1.559436">
        <ele>753.8</ele>
        <time>2012-11-16T13:54:22Z</time>
      </trkpt>
      <trkpt lat="42.867675" lon="1.559580">
        <ele>751.4</ele>
        <time>2012-11-16T13:54:33Z</time>
      </trkpt>
      <trkpt lat="42.867685" lon="1.559746">
        <ele>749.5</ele>
        <time>2012-11-16T13:54:42Z</time>
      </trkpt>
      <trkpt lat="42.867718" lon="1.559936">
        <ele>747.1</ele>
        <time>2012-11-16T13:54:51Z</time>
      </trkpt>
      <trkpt lat="42.867728" lon="1.560075">
        <ele>744.7</ele>
        <time>2012-11-16T13:55:02Z</time>
      </trkpt>
      <trkpt lat="42.867736" lon="1.560212">
        <ele>741.8</ele>
        <time>2012-11-16T13:55:14Z</time>
      </trkpt>
      <trkpt lat="42.867782" lon="1.560374">
        <ele>739.4</ele>
        <time>2012-11-16T13:55:26Z</time>
      </trkpt>
      <trkpt lat="42.867827" lon="1.560544">
        <ele>735.5</ele>
        <time>2012-11-16T13:55:39Z</time>
      </trkpt>
      <trkpt lat="42.867827" lon="1.560726">
        <ele>733.6</ele>
        <time>2012-11-16T13:55:50Z</time>
      </trkpt>
      <trkpt lat="42.867882" lon="1.560859">
        <ele>731.2</ele>
        <time>2012-11-16T13:56:03Z</time>
      </trkpt>
      <trkpt lat="42.867945" lon="1.561023">
        <ele>728.3</ele>
        <time>2012-11-16T13:56:16Z</time>
      </trkpt>
      <trkpt lat="42.868012" lon="1.561215">
        <ele>725.5</ele>
        <time>2012-11-16T13:56:27Z</time>
      </trkpt>
      <trkpt lat="42.868077" lon="1.561381">
        <ele>725.0</ele>
        <time>2012-11-16T13:56:38Z</time>
      </trkpt>
      <trkpt lat="42.868121" lon="1.561522">
        <ele>722.6</ele>
        <time>2012-11-16T13:56:48Z</time>
      </trkpt>
      <trkpt lat="42.868178" lon="1.561678">
        <ele>722.1</ele>
        <time>2012-11-16T13:56:59Z</time>
      </trkpt>
      <trkpt lat="42.868168" lon="1.561803">
        <ele>716.3</ele>
        <time>2012-11-16T13:57:14Z</time>
      </trkpt>
      <trkpt lat="42.868195" lon="1.561947">
        <ele>713.4</ele>
        <time>2012-11-16T13:57:25Z</time>
      </trkpt>
      <trkpt lat="42.868185" lon="1.562169">
        <ele>712.5</ele>
        <time>2012-11-16T13:57:52Z</time>
      </trkpt>
      <trkpt lat="42.868214" lon="1.562281">
        <ele>711.0</ele>
        <time>2012-11-16T13:58:14Z</time>
      </trkpt>
      <trkpt lat="42.868141" lon="1.562360">
        <ele>709.6</ele>
        <time>2012-11-16T13:58:31Z</time>
      </trkpt>
      <trkpt lat="42.868164" lon="1.562493">
        <ele>709.1</ele>
        <time>2012-11-16T13:58:59Z</time>
      </trkpt>
      <trkpt lat="42.868324" lon="1.562577">
        <ele>708.6</ele>
        <time>2012-11-16T14:00:38Z</time>
      </trkpt>
      <trkpt lat="42.868343" lon="1.562721">
        <ele>706.7</ele>
        <time>2012-11-16T14:00:56Z</time>
      </trkpt>
      <trkpt lat="42.868382" lon="1.562928">
        <ele>707.2</ele>
        <time>2012-11-16T14:01:21Z</time>
      </trkpt>
      <trkpt lat="42.868460" lon="1.563073">
        <ele>708.2</ele>
        <time>2012-11-16T14:01:35Z</time>
      </trkpt>
      <trkpt lat="42.868575" lon="1.563204">
        <ele>709.6</ele>
        <time>2012-11-16T14:01:48Z</time>
      </trkpt>
      <trkpt lat="42.868637" lon="1.563320">
        <ele>711.5</ele>
        <time>2012-11-16T14:01:58Z</time>
      </trkpt>
      <trkpt lat="42.868691" lon="1.563454">
        <ele>712.5</ele>
        <time>2012-11-16T14:02:08Z</time>
      </trkpt>
      <trkpt lat="42.868745" lon="1.563572">
        <ele>713.9</ele>
        <time>2012-11-16T14:02:18Z</time>
      </trkpt>
      <trkpt lat="42.868846" lon="1.563681">
        <ele>715.8</ele>
        <time>2012-11-16T14:02:28Z</time>
      </trkpt>
      <trkpt lat="42.868949" lon="1.563740">
        <ele>717.3</ele>
        <time>2012-11-16T14:02:37Z</time>
      </trkpt>
      <trkpt lat="42.869051" lon="1.563756">
        <ele>719.2</ele>
        <time>2012-11-16T14:02:46Z</time>
      </trkpt>
      <trkpt lat="42.869146" lon="1.563717">
        <ele>719.2</ele>
        <time>2012-11-16T14:02:57Z</time>
      </trkpt>
      <trkpt lat="42.869275" lon="1.563719">
        <ele>719.7</ele>
        <time>2012-11-16T14:03:08Z</time>
      </trkpt>
      <trkpt lat="42.869382" lon="1.563770">
        <ele>718.2</ele>
        <time>2012-11-16T14:03:18Z</time>
      </trkpt>
      <trkpt lat="42.869472" lon="1.563830">
        <ele>717.3</ele>
        <time>2012-11-16T14:03:28Z</time>
      </trkpt>
      <trkpt lat="42.869549" lon="1.563909">
        <ele>715.8</ele>
        <time>2012-11-16T14:03:37Z</time>
      </trkpt>
      <trkpt lat="42.869626" lon="1.564017">
        <ele>714.4</ele>
        <time>2012-11-16T14:03:47Z</time>
      </trkpt>
      <trkpt lat="42.869710" lon="1.564101">
        <ele>713.9</ele>
        <time>2012-11-16T14:03:55Z</time>
      </trkpt>
      <trkpt lat="42.869793" lon="1.564198">
        <ele>712.0</ele>
        <time>2012-11-16T14:04:04Z</time>
      </trkpt>
      <trkpt lat="42.869906" lon="1.564275">
        <ele>711.0</ele>
        <time>2012-11-16T14:04:14Z</time>
      </trkpt>
      <trkpt lat="42.870011" lon="1.564235">
        <ele>710.1</ele>
        <time>2012-11-16T14:04:37Z</time>
      </trkpt>
      <trkpt lat="42.870104" lon="1.564227">
        <ele>709.6</ele>
        <time>2012-11-16T14:04:47Z</time>
      </trkpt>
      <trkpt lat="42.870202" lon="1.564185">
        <ele>706.7</ele>
        <time>2012-11-16T14:04:59Z</time>
      </trkpt>
      <trkpt lat="42.870307" lon="1.564155">
        <ele>704.8</ele>
        <time>2012-11-16T14:05:12Z</time>
      </trkpt>
      <trkpt lat="42.870426" lon="1.564134">
        <ele>701.9</ele>
        <time>2012-11-16T14:05:25Z</time>
      </trkpt>
      <trkpt lat="42.870547" lon="1.564136">
        <ele>700.0</ele>
        <time>2012-11-16T14:05:37Z</time>
      </trkpt>
      <trkpt lat="42.870675" lon="1.564147">
        <ele>696.6</ele>
        <time>2012-11-16T14:05:52Z</time>
      </trkpt>
      <trkpt lat="42.870809" lon="1.564168">
        <ele>693.2</ele>
        <time>2012-11-16T14:06:08Z</time>
      </trkpt>
      <trkpt lat="42.870933" lon="1.564180">
        <ele>690.4</ele>
        <time>2012-11-16T14:06:21Z</time>
      </trkpt>
      <trkpt lat="42.871033" lon="1.564152">
        <ele>688.4</ele>
        <time>2012-11-16T14:06:32Z</time>
      </trkpt>
      <trkpt lat="42.871137" lon="1.564095">
        <ele>687.5</ele>
        <time>2012-11-16T14:06:43Z</time>
      </trkpt>
      <trkpt lat="42.871238" lon="1.564002">
        <ele>686.0</ele>
        <time>2012-11-16T14:06:57Z</time>
      </trkpt>
      <trkpt lat="42.871335" lon="1.563914">
        <ele>683.6</ele>
        <time>2012-11-16T14:07:11Z</time>
      </trkpt>
      <trkpt lat="42.871430" lon="1.563845">
        <ele>681.2</ele>
        <time>2012-11-16T14:07:22Z</time>
      </trkpt>
      <trkpt lat="42.871538" lon="1.563843">
        <ele>679.3</ele>
        <time>2012-11-16T14:07:34Z</time>
      </trkpt>
      <trkpt lat="42.871600" lon="1.563883">
        <ele>675.5</ele>
        <time>2012-11-16T14:07:49Z</time>
      </trkpt>
      <trkpt lat="42.871709" lon="1.563937">
        <ele>674.5</ele>
        <time>2012-11-16T14:07:59Z</time>
      </trkpt>
      <trkpt lat="42.871807" lon="1.563998">
        <ele>672.1</ele>
        <time>2012-11-16T14:08:10Z</time>
      </trkpt>
      <trkpt lat="42.871890" lon="1.564061">
        <ele>671.1</ele>
        <time>2012-11-16T14:08:18Z</time>
      </trkpt>
      <trkpt lat="42.871998" lon="1.564064">
        <ele>670.2</ele>
        <time>2012-11-16T14:08:25Z</time>
      </trkpt>
      <trkpt lat="42.872111" lon="1.564052">
        <ele>670.2</ele>
        <time>2012-11-16T14:08:32Z</time>
      </trkpt>
      <trkpt lat="42.872211" lon="1.564029">
        <ele>670.2</ele>
        <time>2012-11-16T14:08:39Z</time>
      </trkpt>
      <trkpt lat="42.872299" lon="1.563975">
        <ele>670.7</ele>
        <time>2012-11-16T14:08:46Z</time>
      </trkpt>
      <trkpt lat="42.872383" lon="1.563901">
        <ele>670.7</ele>
        <time>2012-11-16T14:08:53Z</time>
      </trkpt>
      <trkpt lat="42.872461" lon="1.563831">
        <ele>670.7</ele>
        <time>2012-11-16T14:09:00Z</time>
      </trkpt>
      <trkpt lat="42.872539" lon="1.563727">
        <ele>671.6</ele>
        <time>2012-11-16T14:09:09Z</time>
      </trkpt>
      <trkpt lat="42.872621" lon="1.563655">
        <ele>671.6</ele>
        <time>2012-11-16T14:09:17Z</time>
      </trkpt>
      <trkpt lat="42.872693" lon="1.563522">
        <ele>673.1</ele>
        <time>2012-11-16T14:09:25Z</time>
      </trkpt>
      <trkpt lat="42.872737" lon="1.563380">
        <ele>673.5</ele>
        <time>2012-11-16T14:09:33Z</time>
      </trkpt>
      <trkpt lat="42.872771" lon="1.563256">
        <ele>675.0</ele>
        <time>2012-11-16T14:09:41Z</time>
      </trkpt>
      <trkpt lat="42.872848" lon="1.563158">
        <ele>674.0</ele>
        <time>2012-11-16T14:09:49Z</time>
      </trkpt>
      <trkpt lat="42.872963" lon="1.563114">
        <ele>673.5</ele>
        <time>2012-11-16T14:09:57Z</time>
      </trkpt>
      <trkpt lat="42.873060" lon="1.563099">
        <ele>672.1</ele>
        <time>2012-11-16T14:10:05Z</time>
      </trkpt>
      <trkpt lat="42.873159" lon="1.563077">
        <ele>669.7</ele>
        <time>2012-11-16T14:10:14Z</time>
      </trkpt>
      <trkpt lat="42.873243" lon="1.563005">
        <ele>668.2</ele>
        <time>2012-11-16T14:10:23Z</time>
      </trkpt>
      <trkpt lat="42.873341" lon="1.562976">
        <ele>666.8</ele>
        <time>2012-11-16T14:10:32Z</time>
      </trkpt>
      <trkpt lat="42.873422" lon="1.562938">
        <ele>665.4</ele>
        <time>2012-11-16T14:10:40Z</time>
      </trkpt>
      <trkpt lat="42.873519" lon="1.562851">
        <ele>664.4</ele>
        <time>2012-11-16T14:10:49Z</time>
      </trkpt>
      <trkpt lat="42.873600" lon="1.562708">
        <ele>664.4</ele>
        <time>2012-11-16T14:10:59Z</time>
      </trkpt>
      <trkpt lat="42.873629" lon="1.562624">
        <ele>662.5</ele>
        <time>2012-11-16T14:11:30Z</time>
      </trkpt>
    </trkseg>
  </trk>
</gpx>

